sensor_id;sensor_type;location;lat;lon;timestamp;P1;durP1;ratioP1;P2;durP2;ratioP2
71435;SDS011;59251;51.326;12.370;2023-11-25T00:02:11;3.77;;;0.60;;
71435;SDS011;59251;51.326;12.370;2023-11-25T00:04:38;5.88;;;0.98;;
71435;SDS011;59251;51.326;12.370;2023-11-25T00:07:05;4.03;;;0.80;;
71435;SDS011;59251;51.326;12.370;2023-11-25T00:09:31;2.90;;;0.50;;
71435;SDS011;59251;51.326;12.370;2023-11-25T00:11:58;5.35;;;0.93;;
71435;SDS011;59251;51.326;12.370;2023-11-25T00:14:26;5.60;;;0.73;;
71435;SDS011;59251;51.326;12.370;2023-11-25T00:16:53;3.03;;;0.57;;
71435;SDS011;59251;51.326;12.370;2023-11-25T00:19:20;5.50;;;1.00;;
71435;SDS011;59251;51.326;12.370;2023-11-25T00:21:46;3.88;;;0.47;;
71435;SDS011;59251;51.326;12.370;2023-11-25T00:24:13;7.35;;;0.73;;
71435;SDS011;59251;51.326;12.370;2023-11-25T00:26:40;5.27;;;1.10;;
71435;SDS011;59251;51.326;12.370;2023-11-25T00:29:07;5.13;;;0.70;;
71435;SDS011;59251;51.326;12.370;2023-11-25T00:31:36;5.20;;;0.60;;
71435;SDS011;59251;51.326;12.370;2023-11-25T00:34:03;4.53;;;0.65;;
71435;SDS011;59251;51.326;12.370;2023-11-25T00:36:29;8.10;;;0.60;;
71435;SDS011;59251;51.326;12.370;2023-11-25T00:38:57;6.67;;;0.83;;
71435;SDS011;59251;51.326;12.370;2023-11-25T00:41:25;4.90;;;0.82;;
71435;SDS011;59251;51.326;12.370;2023-11-25T00:43:52;8.25;;;1.00;;
71435;SDS011;59251;51.326;12.370;2023-11-25T00:46:19;4.68;;;1.08;;
71435;SDS011;59251;51.326;12.370;2023-11-25T00:48:47;4.53;;;1.00;;
71435;SDS011;59251;51.326;12.370;2023-11-25T00:51:14;5.27;;;1.23;;
71435;SDS011;59251;51.326;12.370;2023-11-25T00:53:40;4.95;;;0.90;;
71435;SDS011;59251;51.326;12.370;2023-11-25T00:56:08;10.65;;;1.25;;
71435;SDS011;59251;51.326;12.370;2023-11-25T00:58:36;6.90;;;1.52;;
71435;SDS011;59251;51.326;12.370;2023-11-25T01:01:02;7.00;;;1.23;;
71435;SDS011;59251;51.326;12.370;2023-11-25T01:03:30;6.30;;;1.00;;
71435;SDS011;59251;51.326;12.370;2023-11-25T01:05:58;10.18;;;1.80;;
71435;SDS011;59251;51.326;12.370;2023-11-25T01:08:26;7.97;;;1.40;;
71435;SDS011;59251;51.326;12.370;2023-11-25T01:10:54;9.20;;;1.50;;
71435;SDS011;59251;51.326;12.370;2023-11-25T01:13:21;5.72;;;1.40;;
71435;SDS011;59251;51.326;12.370;2023-11-25T01:15:47;4.83;;;0.70;;
71435;SDS011;59251;51.326;12.370;2023-11-25T01:18:15;7.22;;;1.45;;
71435;SDS011;59251;51.326;12.370;2023-11-25T01:20:42;5.78;;;1.33;;
71435;SDS011;59251;51.326;12.370;2023-11-25T01:23:10;6.03;;;1.40;;
71435;SDS011;59251;51.326;12.370;2023-11-25T01:25:36;10.07;;;1.88;;
71435;SDS011;59251;51.326;12.370;2023-11-25T01:28:03;6.07;;;0.90;;
71435;SDS011;59251;51.326;12.370;2023-11-25T01:30:30;5.10;;;0.95;;
71435;SDS011;59251;51.326;12.370;2023-11-25T01:32:58;4.65;;;1.00;;
71435;SDS011;59251;51.326;12.370;2023-11-25T01:35:25;9.32;;;1.65;;
71435;SDS011;59251;51.326;12.370;2023-11-25T01:37:51;6.25;;;1.25;;
71435;SDS011;59251;51.326;12.370;2023-11-25T01:40:21;8.00;;;1.47;;
71435;SDS011;59251;51.326;12.370;2023-11-25T01:42:48;6.07;;;1.20;;
71435;SDS011;59251;51.326;12.370;2023-11-25T01:45:15;6.78;;;1.55;;
71435;SDS011;59251;51.326;12.370;2023-11-25T01:47:42;8.70;;;1.63;;
71435;SDS011;59251;51.326;12.370;2023-11-25T01:50:09;6.43;;;1.33;;
71435;SDS011;59251;51.326;12.370;2023-11-25T01:52:36;8.00;;;1.60;;
71435;SDS011;59251;51.326;12.370;2023-11-25T01:55:04;4.78;;;0.98;;
71435;SDS011;59251;51.326;12.370;2023-11-25T01:57:35;9.43;;;1.80;;
71435;SDS011;59251;51.326;12.370;2023-11-25T02:00:02;4.93;;;1.27;;
71435;SDS011;59251;51.326;12.370;2023-11-25T02:02:37;7.80;;;1.33;;
71435;SDS011;59251;51.326;12.370;2023-11-25T02:05:05;6.97;;;1.53;;
71435;SDS011;59251;51.326;12.370;2023-11-25T02:07:33;8.50;;;1.75;;
71435;SDS011;59251;51.326;12.370;2023-11-25T02:10:00;6.05;;;1.40;;
71435;SDS011;59251;51.326;12.370;2023-11-25T02:12:26;12.27;;;1.63;;
71435;SDS011;59251;51.326;12.370;2023-11-25T02:14:55;6.10;;;1.17;;
71435;SDS011;59251;51.326;12.370;2023-11-25T02:17:22;7.87;;;1.53;;
71435;SDS011;59251;51.326;12.370;2023-11-25T02:19:50;7.75;;;1.65;;
71435;SDS011;59251;51.326;12.370;2023-11-25T02:22:18;7.10;;;1.70;;
71435;SDS011;59251;51.326;12.370;2023-11-25T02:24:48;8.88;;;1.70;;
71435;SDS011;59251;51.326;12.370;2023-11-25T02:27:15;6.65;;;1.55;;
71435;SDS011;59251;51.326;12.370;2023-11-25T02:29:42;10.57;;;1.83;;
71435;SDS011;59251;51.326;12.370;2023-11-25T02:32:09;9.25;;;1.45;;
71435;SDS011;59251;51.326;12.370;2023-11-25T02:34:36;11.02;;;1.75;;
71435;SDS011;59251;51.326;12.370;2023-11-25T02:37:02;4.97;;;1.23;;
71435;SDS011;59251;51.326;12.370;2023-11-25T02:39:32;6.30;;;1.05;;
71435;SDS011;59251;51.326;12.370;2023-11-25T02:42:00;7.07;;;0.80;;
71435;SDS011;59251;51.326;12.370;2023-11-25T02:44:31;9.55;;;1.38;;
71435;SDS011;59251;51.326;12.370;2023-11-25T02:46:57;7.75;;;1.50;;
71435;SDS011;59251;51.326;12.370;2023-11-25T02:49:24;8.05;;;1.58;;
71435;SDS011;59251;51.326;12.370;2023-11-25T02:51:52;6.80;;;1.25;;
71435;SDS011;59251;51.326;12.370;2023-11-25T02:54:20;6.57;;;1.93;;
71435;SDS011;59251;51.326;12.370;2023-11-25T02:56:47;6.15;;;0.82;;
71435;SDS011;59251;51.326;12.370;2023-11-25T02:59:16;6.53;;;1.02;;
71435;SDS011;59251;51.326;12.370;2023-11-25T03:01:44;7.65;;;1.17;;
71435;SDS011;59251;51.326;12.370;2023-11-25T03:04:15;6.38;;;1.00;;
71435;SDS011;59251;51.326;12.370;2023-11-25T03:06:42;9.00;;;1.13;;
71435;SDS011;59251;51.326;12.370;2023-11-25T03:09:09;7.00;;;1.15;;
71435;SDS011;59251;51.326;12.370;2023-11-25T03:11:36;8.02;;;1.15;;
71435;SDS011;59251;51.326;12.370;2023-11-25T03:14:03;6.22;;;1.20;;
71435;SDS011;59251;51.326;12.370;2023-11-25T03:16:31;3.83;;;0.60;;
71435;SDS011;59251;51.326;12.370;2023-11-25T03:18:58;8.90;;;1.57;;
71435;SDS011;59251;51.326;12.370;2023-11-25T03:21:25;5.03;;;1.38;;
71435;SDS011;59251;51.326;12.370;2023-11-25T03:23:53;6.80;;;1.25;;
71435;SDS011;59251;51.326;12.370;2023-11-25T03:26:20;7.90;;;0.80;;
71435;SDS011;59251;51.326;12.370;2023-11-25T03:28:48;4.93;;;0.90;;
71435;SDS011;59251;51.326;12.370;2023-11-25T03:31:16;9.53;;;1.13;;
71435;SDS011;59251;51.326;12.370;2023-11-25T03:33:44;6.80;;;1.33;;
71435;SDS011;59251;51.326;12.370;2023-11-25T03:36:10;4.68;;;0.80;;
71435;SDS011;59251;51.326;12.370;2023-11-25T03:38:38;8.82;;;1.30;;
71435;SDS011;59251;51.326;12.370;2023-11-25T03:41:05;7.65;;;0.95;;
71435;SDS011;59251;51.326;12.370;2023-11-25T03:43:34;10.43;;;1.43;;
71435;SDS011;59251;51.326;12.370;2023-11-25T03:46:01;6.68;;;1.02;;
71435;SDS011;59251;51.326;12.370;2023-11-25T03:48:29;4.85;;;0.82;;
71435;SDS011;59251;51.326;12.370;2023-11-25T03:50:59;4.93;;;0.50;;
71435;SDS011;59251;51.326;12.370;2023-11-25T03:53:26;9.50;;;1.38;;
71435;SDS011;59251;51.326;12.370;2023-11-25T03:55:54;7.50;;;1.10;;
71435;SDS011;59251;51.326;12.370;2023-11-25T03:58:20;9.63;;;1.23;;
71435;SDS011;59251;51.326;12.370;2023-11-25T04:00:47;9.02;;;1.20;;
71435;SDS011;59251;51.326;12.370;2023-11-25T04:03:14;8.18;;;0.82;;
71435;SDS011;59251;51.326;12.370;2023-11-25T04:05:40;6.55;;;0.75;;
71435;SDS011;59251;51.326;12.370;2023-11-25T04:08:08;6.53;;;0.93;;
71435;SDS011;59251;51.326;12.370;2023-11-25T04:10:35;8.43;;;0.90;;
71435;SDS011;59251;51.326;12.370;2023-11-25T04:13:03;8.32;;;1.17;;
71435;SDS011;59251;51.326;12.370;2023-11-25T04:15:29;10.35;;;1.08;;
71435;SDS011;59251;51.326;12.370;2023-11-25T04:17:56;6.72;;;0.90;;
71435;SDS011;59251;51.326;12.370;2023-11-25T04:20:23;4.97;;;1.17;;
71435;SDS011;59251;51.326;12.370;2023-11-25T04:22:54;5.75;;;0.70;;
71435;SDS011;59251;51.326;12.370;2023-11-25T04:25:22;7.70;;;1.20;;
71435;SDS011;59251;51.326;12.370;2023-11-25T04:27:50;7.07;;;1.58;;
71435;SDS011;59251;51.326;12.370;2023-11-25T04:30:17;5.97;;;1.10;;
71435;SDS011;59251;51.326;12.370;2023-11-25T04:32:44;5.50;;;0.93;;
71435;SDS011;59251;51.326;12.370;2023-11-25T04:35:12;6.40;;;0.98;;
71435;SDS011;59251;51.326;12.370;2023-11-25T04:37:40;6.00;;;0.73;;
71435;SDS011;59251;51.326;12.370;2023-11-25T04:40:09;11.15;;;1.10;;
71435;SDS011;59251;51.326;12.370;2023-11-25T04:42:39;7.03;;;0.80;;
71435;SDS011;59251;51.326;12.370;2023-11-25T04:45:06;6.60;;;0.57;;
71435;SDS011;59251;51.326;12.370;2023-11-25T04:47:40;5.72;;;0.80;;
71435;SDS011;59251;51.326;12.370;2023-11-25T04:50:09;7.65;;;0.95;;
71435;SDS011;59251;51.326;12.370;2023-11-25T04:52:36;7.18;;;0.98;;
71435;SDS011;59251;51.326;12.370;2023-11-25T04:55:03;5.18;;;0.60;;
71435;SDS011;59251;51.326;12.370;2023-11-25T04:57:30;11.13;;;1.27;;
71435;SDS011;59251;51.326;12.370;2023-11-25T04:59:58;5.70;;;0.60;;
71435;SDS011;59251;51.326;12.370;2023-11-25T05:02:25;7.20;;;0.80;;
71435;SDS011;59251;51.326;12.370;2023-11-25T05:04:51;5.65;;;0.80;;
71435;SDS011;59251;51.326;12.370;2023-11-25T05:07:18;7.53;;;0.90;;
71435;SDS011;59251;51.326;12.370;2023-11-25T05:09:45;6.97;;;0.80;;
71435;SDS011;59251;51.326;12.370;2023-11-25T05:12:11;6.85;;;0.90;;
71435;SDS011;59251;51.326;12.370;2023-11-25T05:14:39;6.80;;;0.70;;
71435;SDS011;59251;51.326;12.370;2023-11-25T05:17:08;7.40;;;0.80;;
71435;SDS011;59251;51.326;12.370;2023-11-25T05:19:34;5.95;;;0.65;;
71435;SDS011;59251;51.326;12.370;2023-11-25T05:22:02;3.80;;;0.60;;
71435;SDS011;59251;51.326;12.370;2023-11-25T05:24:29;7.35;;;0.60;;
71435;SDS011;59251;51.326;12.370;2023-11-25T05:26:56;5.80;;;0.70;;
71435;SDS011;59251;51.326;12.370;2023-11-25T05:29:23;7.55;;;1.35;;
71435;SDS011;59251;51.326;12.370;2023-11-25T05:31:49;8.15;;;1.52;;
71435;SDS011;59251;51.326;12.370;2023-11-25T05:34:17;6.33;;;0.70;;
71435;SDS011;59251;51.326;12.370;2023-11-25T05:36:45;5.97;;;0.73;;
71435;SDS011;59251;51.326;12.370;2023-11-25T05:39:12;7.47;;;0.80;;
71435;SDS011;59251;51.326;12.370;2023-11-25T05:41:39;9.32;;;0.77;;
71435;SDS011;59251;51.326;12.370;2023-11-25T05:44:06;4.35;;;0.60;;
71435;SDS011;59251;51.326;12.370;2023-11-25T05:46:34;3.63;;;0.47;;
71435;SDS011;59251;51.326;12.370;2023-11-25T05:49:01;4.55;;;0.50;;
71435;SDS011;59251;51.326;12.370;2023-11-25T05:51:33;6.88;;;0.70;;
71435;SDS011;59251;51.326;12.370;2023-11-25T05:54:01;6.82;;;0.85;;
71435;SDS011;59251;51.326;12.370;2023-11-25T05:56:28;5.95;;;0.65;;
71435;SDS011;59251;51.326;12.370;2023-11-25T05:58:54;6.83;;;0.77;;
71435;SDS011;59251;51.326;12.370;2023-11-25T06:01:22;3.90;;;0.75;;
71435;SDS011;59251;51.326;12.370;2023-11-25T06:03:49;3.90;;;0.52;;
71435;SDS011;59251;51.326;12.370;2023-11-25T06:06:17;7.50;;;1.42;;
71435;SDS011;59251;51.326;12.370;2023-11-25T06:08:47;10.32;;;0.88;;
71435;SDS011;59251;51.326;12.370;2023-11-25T06:11:18;8.13;;;1.53;;
71435;SDS011;59251;51.326;12.370;2023-11-25T06:13:45;5.07;;;0.90;;
71435;SDS011;59251;51.326;12.370;2023-11-25T06:16:13;7.40;;;1.08;;
71435;SDS011;59251;51.326;12.370;2023-11-25T06:18:39;5.35;;;1.00;;
71435;SDS011;59251;51.326;12.370;2023-11-25T06:21:06;5.05;;;0.80;;
71435;SDS011;59251;51.326;12.370;2023-11-25T06:23:33;8.10;;;1.00;;
71435;SDS011;59251;51.326;12.370;2023-11-25T06:26:02;12.68;;;1.38;;
71435;SDS011;59251;51.326;12.370;2023-11-25T06:28:31;4.85;;;0.80;;
71435;SDS011;59251;51.326;12.370;2023-11-25T06:30:58;7.90;;;0.90;;
71435;SDS011;59251;51.326;12.370;2023-11-25T06:33:24;7.10;;;1.13;;
71435;SDS011;59251;51.326;12.370;2023-11-25T06:35:51;6.70;;;1.00;;
71435;SDS011;59251;51.326;12.370;2023-11-25T06:38:20;7.35;;;1.10;;
71435;SDS011;59251;51.326;12.370;2023-11-25T06:40:47;7.53;;;1.17;;
71435;SDS011;59251;51.326;12.370;2023-11-25T06:43:16;4.82;;;0.70;;
71435;SDS011;59251;51.326;12.370;2023-11-25T06:45:42;7.78;;;1.20;;
71435;SDS011;59251;51.326;12.370;2023-11-25T06:48:09;6.80;;;0.93;;
71435;SDS011;59251;51.326;12.370;2023-11-25T06:50:36;7.07;;;1.25;;
71435;SDS011;59251;51.326;12.370;2023-11-25T06:53:03;8.18;;;1.17;;
71435;SDS011;59251;51.326;12.370;2023-11-25T06:55:31;7.95;;;1.10;;
71435;SDS011;59251;51.326;12.370;2023-11-25T06:57:58;6.75;;;0.60;;
71435;SDS011;59251;51.326;12.370;2023-11-25T07:00:26;5.70;;;0.80;;
71435;SDS011;59251;51.326;12.370;2023-11-25T07:02:53;6.03;;;0.80;;
71435;SDS011;59251;51.326;12.370;2023-11-25T07:05:19;4.50;;;1.10;;
71435;SDS011;59251;51.326;12.370;2023-11-25T07:07:46;5.55;;;0.70;;
71435;SDS011;59251;51.326;12.370;2023-11-25T07:10:13;6.43;;;1.08;;
71435;SDS011;59251;51.326;12.370;2023-11-25T07:12:40;4.13;;;0.63;;
71435;SDS011;59251;51.326;12.370;2023-11-25T07:15:07;5.70;;;1.10;;
71435;SDS011;59251;51.326;12.370;2023-11-25T07:17:36;6.90;;;0.55;;
71435;SDS011;59251;51.326;12.370;2023-11-25T07:20:04;8.07;;;0.82;;
71435;SDS011;59251;51.326;12.370;2023-11-25T07:22:37;7.40;;;0.90;;
71435;SDS011;59251;51.326;12.370;2023-11-25T07:25:04;2.77;;;0.43;;
71435;SDS011;59251;51.326;12.370;2023-11-25T07:27:31;6.40;;;0.73;;
71435;SDS011;59251;51.326;12.370;2023-11-25T07:29:58;9.05;;;0.77;;
71435;SDS011;59251;51.326;12.370;2023-11-25T07:32:26;5.93;;;0.80;;
71435;SDS011;59251;51.326;12.370;2023-11-25T07:34:54;9.68;;;0.90;;
71435;SDS011;59251;51.326;12.370;2023-11-25T07:37:21;6.17;;;0.50;;
71435;SDS011;59251;51.326;12.370;2023-11-25T07:39:47;4.95;;;0.63;;
71435;SDS011;59251;51.326;12.370;2023-11-25T07:42:14;4.70;;;0.40;;
71435;SDS011;59251;51.326;12.370;2023-11-25T07:44:41;7.68;;;1.10;;
71435;SDS011;59251;51.326;12.370;2023-11-25T07:47:08;8.98;;;1.25;;
71435;SDS011;59251;51.326;12.370;2023-11-25T07:49:36;10.93;;;0.80;;
71435;SDS011;59251;51.326;12.370;2023-11-25T07:52:04;8.50;;;0.75;;
71435;SDS011;59251;51.326;12.370;2023-11-25T07:54:31;6.03;;;0.80;;
71435;SDS011;59251;51.326;12.370;2023-11-25T07:56:58;5.82;;;0.55;;
71435;SDS011;59251;51.326;12.370;2023-11-25T07:59:25;7.57;;;0.60;;
71435;SDS011;59251;51.326;12.370;2023-11-25T08:01:52;8.73;;;0.73;;
71435;SDS011;59251;51.326;12.370;2023-11-25T08:04:19;5.28;;;0.70;;
71435;SDS011;59251;51.326;12.370;2023-11-25T08:06:46;4.55;;;0.55;;
71435;SDS011;59251;51.326;12.370;2023-11-25T08:09:14;4.28;;;0.47;;
71435;SDS011;59251;51.326;12.370;2023-11-25T08:11:43;7.72;;;0.80;;
71435;SDS011;59251;51.326;12.370;2023-11-25T08:14:11;4.17;;;0.40;;
71435;SDS011;59251;51.326;12.370;2023-11-25T08:16:38;4.20;;;0.38;;
71435;SDS011;59251;51.326;12.370;2023-11-25T08:19:05;8.10;;;0.47;;
71435;SDS011;59251;51.326;12.370;2023-11-25T08:21:32;4.22;;;0.35;;
71435;SDS011;59251;51.326;12.370;2023-11-25T08:23:58;4.75;;;0.57;;
71435;SDS011;59251;51.326;12.370;2023-11-25T08:26:27;3.47;;;0.47;;
71435;SDS011;59251;51.326;12.370;2023-11-25T08:28:55;7.05;;;0.57;;
71435;SDS011;59251;51.326;12.370;2023-11-25T08:31:22;4.95;;;0.68;;
71435;SDS011;59251;51.326;12.370;2023-11-25T08:33:49;2.72;;;0.40;;
71435;SDS011;59251;51.326;12.370;2023-11-25T08:36:16;7.88;;;0.50;;
71435;SDS011;59251;51.326;12.370;2023-11-25T08:38:43;10.30;;;0.90;;
71435;SDS011;59251;51.326;12.370;2023-11-25T08:41:10;4.28;;;0.82;;
71435;SDS011;59251;51.326;12.370;2023-11-25T08:43:39;4.28;;;0.63;;
71435;SDS011;59251;51.326;12.370;2023-11-25T08:46:09;3.53;;;0.40;;
71435;SDS011;59251;51.326;12.370;2023-11-25T08:48:35;5.43;;;0.50;;
71435;SDS011;59251;51.326;12.370;2023-11-25T08:51:02;6.93;;;0.67;;
71435;SDS011;59251;51.326;12.370;2023-11-25T08:53:30;7.97;;;0.93;;
71435;SDS011;59251;51.326;12.370;2023-11-25T08:55:57;7.38;;;1.15;;
71435;SDS011;59251;51.326;12.370;2023-11-25T08:58:24;5.85;;;0.90;;
71435;SDS011;59251;51.326;12.370;2023-11-25T09:00:53;6.30;;;0.70;;
71435;SDS011;59251;51.326;12.370;2023-11-25T09:03:20;7.87;;;0.70;;
71435;SDS011;59251;51.326;12.370;2023-11-25T09:05:48;6.35;;;0.75;;
71435;SDS011;59251;51.326;12.370;2023-11-25T09:08:15;8.63;;;0.82;;
71435;SDS011;59251;51.326;12.370;2023-11-25T09:10:42;4.05;;;0.50;;
71435;SDS011;59251;51.326;12.370;2023-11-25T09:13:09;11.40;;;1.50;;
71435;SDS011;59251;51.326;12.370;2023-11-25T09:15:37;5.17;;;1.50;;
71435;SDS011;59251;51.326;12.370;2023-11-25T09:18:05;5.00;;;0.93;;
71435;SDS011;59251;51.326;12.370;2023-11-25T09:20:32;7.38;;;0.85;;
71435;SDS011;59251;51.326;12.370;2023-11-25T09:22:59;7.40;;;0.90;;
71435;SDS011;59251;51.326;12.370;2023-11-25T09:25:26;8.15;;;1.40;;
71435;SDS011;59251;51.326;12.370;2023-11-25T09:27:54;6.73;;;0.97;;
71435;SDS011;59251;51.326;12.370;2023-11-25T09:30:21;7.18;;;1.00;;
71435;SDS011;59251;51.326;12.370;2023-11-25T09:32:48;6.25;;;1.15;;
71435;SDS011;59251;51.326;12.370;2023-11-25T09:35:18;6.90;;;1.63;;
71435;SDS011;59251;51.326;12.370;2023-11-25T09:37:46;5.32;;;0.98;;
71435;SDS011;59251;51.326;12.370;2023-11-25T09:40:13;6.83;;;0.73;;
71435;SDS011;59251;51.326;12.370;2023-11-25T09:42:40;6.82;;;0.98;;
71435;SDS011;59251;51.326;12.370;2023-11-25T09:45:09;5.30;;;0.80;;
71435;SDS011;59251;51.326;12.370;2023-11-25T09:47:36;10.90;;;1.35;;
71435;SDS011;59251;51.326;12.370;2023-11-25T09:50:03;7.07;;;0.88;;
71435;SDS011;59251;51.326;12.370;2023-11-25T09:52:32;5.90;;;1.07;;
71435;SDS011;59251;51.326;12.370;2023-11-25T09:55:06;7.50;;;1.38;;
71435;SDS011;59251;51.326;12.370;2023-11-25T09:57:35;5.93;;;1.10;;
71435;SDS011;59251;51.326;12.370;2023-11-25T10:00:03;7.30;;;0.80;;
71435;SDS011;59251;51.326;12.370;2023-11-25T10:02:33;7.40;;;1.30;;
71435;SDS011;59251;51.326;12.370;2023-11-25T10:05:02;5.43;;;1.10;;
71435;SDS011;59251;51.326;12.370;2023-11-25T10:07:30;6.95;;;1.27;;
71435;SDS011;59251;51.326;12.370;2023-11-25T10:09:58;9.55;;;1.60;;
71435;SDS011;59251;51.326;12.370;2023-11-25T10:12:24;5.80;;;1.15;;
71435;SDS011;59251;51.326;12.370;2023-11-25T10:14:51;7.13;;;1.13;;
71435;SDS011;59251;51.326;12.370;2023-11-25T10:17:18;9.37;;;1.30;;
71435;SDS011;59251;51.326;12.370;2023-11-25T10:19:46;7.90;;;1.02;;
71435;SDS011;59251;51.326;12.370;2023-11-25T10:22:14;6.15;;;1.10;;
71435;SDS011;59251;51.326;12.370;2023-11-25T10:24:45;8.55;;;1.27;;
71435;SDS011;59251;51.326;12.370;2023-11-25T10:27:16;6.75;;;1.60;;
71435;SDS011;59251;51.326;12.370;2023-11-25T10:29:43;11.77;;;1.50;;
71435;SDS011;59251;51.326;12.370;2023-11-25T10:32:12;6.43;;;1.30;;
71435;SDS011;59251;51.326;12.370;2023-11-25T10:34:39;5.88;;;1.20;;
71435;SDS011;59251;51.326;12.370;2023-11-25T10:37:06;13.27;;;1.58;;
71435;SDS011;59251;51.326;12.370;2023-11-25T10:39:34;7.15;;;1.80;;
71435;SDS011;59251;51.326;12.370;2023-11-25T10:42:01;7.47;;;1.03;;
71435;SDS011;59251;51.326;12.370;2023-11-25T10:44:30;7.72;;;1.80;;
71435;SDS011;59251;51.326;12.370;2023-11-25T10:46:57;9.23;;;1.73;;
71435;SDS011;59251;51.326;12.370;2023-11-25T10:49:25;6.05;;;1.30;;
71435;SDS011;59251;51.326;12.370;2023-11-25T10:51:55;13.02;;;1.90;;
71435;SDS011;59251;51.326;12.370;2023-11-25T10:54:26;8.47;;;1.73;;
71435;SDS011;59251;51.326;12.370;2023-11-25T10:56:57;7.03;;;1.65;;
71435;SDS011;59251;51.326;12.370;2023-11-25T10:59:28;19.27;;;1.40;;
71435;SDS011;59251;51.326;12.370;2023-11-25T11:01:58;8.85;;;2.22;;
71435;SDS011;59251;51.326;12.370;2023-11-25T11:04:31;11.50;;;2.40;;
71435;SDS011;59251;51.326;12.370;2023-11-25T11:07:02;10.60;;;2.10;;
71435;SDS011;59251;51.326;12.370;2023-11-25T11:09:30;11.20;;;2.08;;
71435;SDS011;59251;51.326;12.370;2023-11-25T11:12:01;11.65;;;1.52;;
71435;SDS011;59251;51.326;12.370;2023-11-25T11:14:34;12.18;;;1.92;;
71435;SDS011;59251;51.326;12.370;2023-11-25T11:17:08;8.45;;;1.95;;
71435;SDS011;59251;51.326;12.370;2023-11-25T11:19:39;12.83;;;2.10;;
71435;SDS011;59251;51.326;12.370;2023-11-25T11:22:07;9.02;;;1.60;;
71435;SDS011;59251;51.326;12.370;2023-11-25T11:24:39;10.25;;;1.70;;
71435;SDS011;59251;51.326;12.370;2023-11-25T11:27:34;9.23;;;1.95;;
71435;SDS011;59251;51.326;12.370;2023-11-25T11:30:10;9.93;;;1.70;;
71435;SDS011;59251;51.326;12.370;2023-11-25T11:32:42;11.57;;;2.10;;
71435;SDS011;59251;51.326;12.370;2023-11-25T11:35:10;7.72;;;1.50;;
71435;SDS011;59251;51.326;12.370;2023-11-25T11:37:38;11.07;;;1.35;;
71435;SDS011;59251;51.326;12.370;2023-11-25T11:40:06;5.78;;;1.40;;
71435;SDS011;59251;51.326;12.370;2023-11-25T11:42:33;9.82;;;1.45;;
71435;SDS011;59251;51.326;12.370;2023-11-25T11:45:05;11.73;;;2.20;;
71435;SDS011;59251;51.326;12.370;2023-11-25T11:47:44;7.00;;;1.30;;
71435;SDS011;59251;51.326;12.370;2023-11-25T11:50:16;6.45;;;1.80;;
71435;SDS011;59251;51.326;12.370;2023-11-25T11:52:44;7.25;;;1.52;;
71435;SDS011;59251;51.326;12.370;2023-11-25T11:55:38;11.32;;;2.40;;
71435;SDS011;59251;51.326;12.370;2023-11-25T11:58:05;6.13;;;1.90;;
71435;SDS011;59251;51.326;12.370;2023-11-25T12:00:40;6.95;;;1.60;;
71435;SDS011;59251;51.326;12.370;2023-11-25T12:03:10;10.25;;;2.08;;
71435;SDS011;59251;51.326;12.370;2023-11-25T12:05:37;7.43;;;1.65;;
71435;SDS011;59251;51.326;12.370;2023-11-25T12:08:04;11.82;;;2.95;;
71435;SDS011;59251;51.326;12.370;2023-11-25T12:10:31;9.80;;;2.00;;
71435;SDS011;59251;51.326;12.370;2023-11-25T12:12:59;14.55;;;3.67;;
71435;SDS011;59251;51.326;12.370;2023-11-25T12:15:26;10.65;;;1.98;;
71435;SDS011;59251;51.326;12.370;2023-11-25T12:17:53;10.68;;;2.30;;
71435;SDS011;59251;51.326;12.370;2023-11-25T12:20:22;9.05;;;2.10;;
71435;SDS011;59251;51.326;12.370;2023-11-25T12:22:51;4.93;;;1.37;;
71435;SDS011;59251;51.326;12.370;2023-11-25T12:25:18;8.38;;;2.20;;
71435;SDS011;59251;51.326;12.370;2023-11-25T12:27:47;9.65;;;1.67;;
71435;SDS011;59251;51.326;12.370;2023-11-25T12:30:18;12.88;;;2.03;;
71435;SDS011;59251;51.326;12.370;2023-11-25T12:32:44;9.90;;;2.25;;
71435;SDS011;59251;51.326;12.370;2023-11-25T12:35:11;8.03;;;1.80;;
71435;SDS011;59251;51.326;12.370;2023-11-25T12:37:43;6.55;;;1.58;;
71435;SDS011;59251;51.326;12.370;2023-11-25T12:40:18;9.63;;;2.45;;
71435;SDS011;59251;51.326;12.370;2023-11-25T12:42:46;10.90;;;1.88;;
71435;SDS011;59251;51.326;12.370;2023-11-25T12:45:26;9.27;;;2.28;;
71435;SDS011;59251;51.326;12.370;2023-11-25T12:47:57;9.87;;;2.40;;
71435;SDS011;59251;51.326;12.370;2023-11-25T12:50:26;9.88;;;2.33;;
71435;SDS011;59251;51.326;12.370;2023-11-25T12:53:06;11.02;;;2.75;;
71435;SDS011;59251;51.326;12.370;2023-11-25T12:55:35;8.85;;;2.45;;
71435;SDS011;59251;51.326;12.370;2023-11-25T12:58:07;8.75;;;2.10;;
71435;SDS011;59251;51.326;12.370;2023-11-25T13:00:35;10.57;;;2.73;;
71435;SDS011;59251;51.326;12.370;2023-11-25T13:03:03;10.20;;;2.22;;
71435;SDS011;59251;51.326;12.370;2023-11-25T13:05:31;8.70;;;1.92;;
71435;SDS011;59251;51.326;12.370;2023-11-25T13:07:58;8.13;;;2.40;;
71435;SDS011;59251;51.326;12.370;2023-11-25T13:10:26;14.18;;;2.85;;
71435;SDS011;59251;51.326;12.370;2023-11-25T13:12:53;11.63;;;2.90;;
71435;SDS011;59251;51.326;12.370;2023-11-25T13:15:20;9.13;;;2.67;;
71435;SDS011;59251;51.326;12.370;2023-11-25T13:17:48;9.90;;;3.08;;
71435;SDS011;59251;51.326;12.370;2023-11-25T13:20:14;9.50;;;2.88;;
71435;SDS011;59251;51.326;12.370;2023-11-25T13:22:42;9.73;;;3.13;;
71435;SDS011;59251;51.326;12.370;2023-11-25T13:25:10;11.73;;;3.40;;
71435;SDS011;59251;51.326;12.370;2023-11-25T13:27:39;12.52;;;2.88;;
71435;SDS011;59251;51.326;12.370;2023-11-25T13:30:06;8.80;;;3.35;;
71435;SDS011;59251;51.326;12.370;2023-11-25T13:32:36;9.07;;;2.42;;
71435;SDS011;59251;51.326;12.370;2023-11-25T13:35:03;8.82;;;2.38;;
71435;SDS011;59251;51.326;12.370;2023-11-25T13:37:31;13.87;;;2.90;;
71435;SDS011;59251;51.326;12.370;2023-11-25T13:40:01;7.57;;;1.90;;
71435;SDS011;59251;51.326;12.370;2023-11-25T13:42:31;10.38;;;2.53;;
71435;SDS011;59251;51.326;12.370;2023-11-25T13:44:59;8.60;;;2.10;;
71435;SDS011;59251;51.326;12.370;2023-11-25T13:47:26;7.65;;;2.13;;
71435;SDS011;59251;51.326;12.370;2023-11-25T13:49:53;9.23;;;2.83;;
71435;SDS011;59251;51.326;12.370;2023-11-25T13:52:20;8.68;;;2.83;;
71435;SDS011;59251;51.326;12.370;2023-11-25T13:54:47;8.15;;;1.85;;
71435;SDS011;59251;51.326;12.370;2023-11-25T13:57:13;7.25;;;2.30;;
71435;SDS011;59251;51.326;12.370;2023-11-25T13:59:40;7.55;;;1.92;;
71435;SDS011;59251;51.326;12.370;2023-11-25T14:02:09;9.90;;;2.47;;
71435;SDS011;59251;51.326;12.370;2023-11-25T14:04:37;7.68;;;2.10;;
71435;SDS011;59251;51.326;12.370;2023-11-25T14:07:04;8.13;;;2.80;;
71435;SDS011;59251;51.326;12.370;2023-11-25T14:09:31;8.05;;;2.33;;
71435;SDS011;59251;51.326;12.370;2023-11-25T14:11:58;9.38;;;2.97;;
71435;SDS011;59251;51.326;12.370;2023-11-25T14:14:25;6.43;;;2.40;;
71435;SDS011;59251;51.326;12.370;2023-11-25T14:16:52;8.77;;;2.92;;
71435;SDS011;59251;51.326;12.370;2023-11-25T14:19:21;10.95;;;2.70;;
71435;SDS011;59251;51.326;12.370;2023-11-25T14:21:48;8.55;;;2.70;;
71435;SDS011;59251;51.326;12.370;2023-11-25T14:24:15;9.35;;;2.67;;
71435;SDS011;59251;51.326;12.370;2023-11-25T14:26:42;9.53;;;3.40;;
71435;SDS011;59251;51.326;12.370;2023-11-25T14:29:08;10.07;;;2.75;;
71435;SDS011;59251;51.326;12.370;2023-11-25T14:31:35;11.23;;;3.95;;
71435;SDS011;59251;51.326;12.370;2023-11-25T14:34:02;11.93;;;3.53;;
71435;SDS011;59251;51.326;12.370;2023-11-25T14:36:30;8.73;;;2.58;;
71435;SDS011;59251;51.326;12.370;2023-11-25T14:38:57;8.83;;;3.30;;